createdAt,value
2019-04-29T00:00:18.064Z,6.72
2019-04-29T00:02:47.807Z,6.00
2019-04-29T00:05:19.062Z,7.00
2019-04-29T00:07:48.943Z,6.55
2019-04-29T00:10:20.871Z,6.22
2019-04-29T00:12:50.764Z,6.72
2019-04-29T00:15:22.323Z,6.33
2019-04-29T00:17:53.922Z,6.25
2019-04-29T00:20:38.623Z,6.00
2019-04-29T00:23:08.501Z,7.65
2019-04-29T00:25:38.350Z,7.87
2019-04-29T00:28:08.330Z,8.13
2019-04-29T00:30:38.196Z,7.50
2019-04-29T00:33:08.078Z,7.30
2019-04-29T00:35:37.783Z,8.68
2019-04-29T00:38:20.776Z,8.55
2019-04-29T00:40:54.610Z,8.20
2019-04-29T00:43:28.777Z,8.33
2019-04-29T00:45:58.632Z,8.35
2019-04-29T00:48:28.517Z,8.68
2019-04-29T00:50:58.378Z,8.65
2019-04-29T00:53:28.246Z,8.33
2019-04-29T00:55:59.437Z,8.25
2019-04-29T00:58:30.226Z,8.98
2019-04-29T01:01:00.154Z,8.80
2019-04-29T01:03:29.993Z,7.05
2019-04-29T01:05:59.576Z,8.78
2019-04-29T01:08:29.427Z,9.45
2019-04-29T01:10:58.958Z,9.25
2019-04-29T01:13:28.841Z,9.20
2019-04-29T01:15:59.976Z,10.68
2019-04-29T01:18:29.575Z,9.28
2019-04-29T01:20:59.391Z,9.90
2019-04-29T01:23:28.928Z,10.00
2019-04-29T01:26:00.077Z,9.30
2019-04-29T01:28:37.086Z,10.20
2019-04-29T01:31:09.640Z,9.80
2019-04-29T01:33:43.075Z,9.85
2019-04-29T01:36:17.274Z,9.85
2019-04-29T01:38:49.604Z,8.90
2019-04-29T01:41:30.884Z,9.68
2019-04-29T01:44:02.337Z,10.05
2019-04-29T01:46:32.222Z,9.48
2019-04-29T01:49:02.400Z,10.00
2019-04-29T01:51:32.046Z,9.83
2019-04-29T01:54:01.986Z,9.68
2019-04-29T01:56:31.878Z,10.33
2019-04-29T01:59:01.802Z,11.60
2019-04-29T02:01:31.711Z,11.22
2019-04-29T02:04:01.647Z,8.10
2019-04-29T02:06:31.540Z,9.45
2019-04-29T02:09:01.458Z,9.48
2019-04-29T02:11:31.372Z,8.55
2019-04-29T02:14:01.304Z,8.60
2019-04-29T02:16:31.196Z,7.77
2019-04-29T02:19:01.122Z,8.00
2019-04-29T02:21:31.029Z,8.23
2019-04-29T02:24:08.163Z,6.60
2019-04-29T02:26:37.832Z,7.03
2019-04-29T02:29:07.750Z,8.73
2019-04-29T02:31:45.268Z,8.25
2019-04-29T02:34:14.808Z,7.30
2019-04-29T02:36:44.431Z,7.20
2019-04-29T02:39:18.652Z,8.50
2019-04-29T02:41:52.570Z,8.30
2019-04-29T02:44:22.405Z,6.95
2019-04-29T02:46:52.361Z,7.00
2019-04-29T02:49:22.233Z,7.15
2019-04-29T02:51:53.479Z,7.37
2019-04-29T02:54:25.011Z,7.58
2019-04-29T02:57:02.530Z,7.33
2019-04-29T02:59:39.483Z,7.22
2019-04-29T03:02:19.685Z,7.42
2019-04-29T03:04:51.444Z,7.90
2019-04-29T03:07:21.942Z,7.28
2019-04-29T03:09:51.927Z,7.72
2019-04-29T03:12:22.230Z,7.40
2019-04-29T03:14:52.183Z,6.17
2019-04-29T03:17:22.148Z,8.15
2019-04-29T03:20:08.644Z,8.70
2019-04-29T03:22:39.841Z,9.20
2019-04-29T03:25:09.824Z,8.43
2019-04-29T03:27:40.140Z,8.15
2019-04-29T03:30:10.663Z,7.70
2019-04-29T03:32:40.557Z,7.62
2019-04-29T03:35:10.406Z,9.20
2019-04-29T03:37:40.299Z,9.10
2019-04-29T03:40:12.347Z,8.98
2019-04-29T03:42:42.164Z,8.03
2019-04-29T03:45:12.210Z,8.35
2019-04-29T03:47:42.094Z,8.38
2019-04-29T03:50:12.051Z,6.17
2019-04-29T03:52:41.851Z,8.38
2019-04-29T03:55:11.678Z,8.53
2019-04-29T03:57:41.627Z,9.68
2019-04-29T04:00:13.629Z,8.40
2019-04-29T04:02:45.143Z,8.40
2019-04-29T04:05:16.671Z,7.03
2019-04-29T04:07:48.229Z,7.95
2019-04-29T04:10:18.384Z,7.90
2019-04-29T04:12:48.065Z,7.53
2019-04-29T04:15:18.179Z,7.35
2019-04-29T04:17:52.528Z,7.17
2019-04-29T04:20:22.673Z,6.67
2019-04-29T04:22:52.228Z,6.30
2019-04-29T04:25:22.123Z,6.55
2019-04-29T04:27:51.668Z,7.00
2019-04-29T04:30:22.091Z,6.33
2019-04-29T04:32:52.027Z,6.33
2019-04-29T04:35:21.719Z,6.63
2019-04-29T04:37:51.345Z,6.00
2019-04-29T04:40:26.389Z,6.17
2019-04-29T04:42:56.178Z,6.45
2019-04-29T04:45:25.965Z,6.67
2019-04-29T04:47:55.891Z,7.17
2019-04-29T04:50:25.954Z,6.05
2019-04-29T04:52:55.711Z,6.75
2019-04-29T04:55:27.248Z,7.58
2019-04-29T04:57:56.773Z,7.40
2019-04-29T05:00:28.392Z,7.80
2019-04-29T05:02:58.224Z,6.45
2019-04-29T05:05:29.098Z,7.50
2019-04-29T05:10:27.567Z,8.13
2019-04-29T05:12:58.274Z,6.80
2019-04-29T05:15:27.834Z,6.65
2019-04-29T05:17:57.706Z,6.97
2019-04-29T05:20:27.240Z,8.43
2019-04-29T05:23:00.928Z,8.28
2019-04-29T05:25:31.982Z,7.62
2019-04-29T05:28:01.935Z,8.05
2019-04-29T05:30:31.879Z,7.10
2019-04-29T05:33:01.763Z,6.53
2019-04-29T05:35:33.375Z,6.33
2019-04-29T05:38:08.119Z,7.30
2019-04-29T05:40:39.295Z,7.42
2019-04-29T05:43:10.916Z,7.30
2019-04-29T05:45:52.305Z,7.53
2019-04-29T05:48:23.019Z,7.50
2019-04-29T05:51:09.735Z,8.10
2019-04-29T05:53:47.307Z,8.58
2019-04-29T05:56:15.878Z,8.23
2019-04-29T05:58:45.878Z,9.35
2019-04-29T06:01:17.384Z,9.57
2019-04-29T06:03:47.070Z,8.83
2019-04-29T06:06:17.495Z,8.05
2019-04-29T06:08:47.443Z,8.80
2019-04-29T06:11:19.412Z,9.00
2019-04-29T06:13:49.175Z,8.30
2019-04-29T06:16:20.838Z,8.70
2019-04-29T06:18:59.798Z,8.40
2019-04-29T06:21:22.434Z,9.28
2019-04-29T06:23:54.575Z,8.80
2019-04-29T06:26:23.683Z,9.50
2019-04-29T06:28:53.581Z,10.57
2019-04-29T06:31:23.499Z,9.48
2019-04-29T06:33:53.412Z,8.63
2019-04-29T06:36:24.152Z,11.08
2019-04-29T06:38:54.067Z,9.15
2019-04-29T06:41:23.725Z,10.08
2019-04-29T06:43:56.042Z,10.75
2019-04-29T06:46:25.038Z,10.05
2019-04-29T06:49:09.096Z,9.85
2019-04-29T06:51:26.496Z,9.00
2019-04-29T06:53:56.005Z,9.75
2019-04-29T06:56:25.596Z,10.15
2019-04-29T06:58:55.416Z,10.30
2019-04-29T07:01:24.939Z,10.00
2019-04-29T07:03:59.747Z,10.68
2019-04-29T07:06:27.278Z,11.12
2019-04-29T07:08:57.123Z,10.03
2019-04-29T07:11:26.658Z,11.43
2019-04-29T07:13:57.676Z,11.30
2019-04-29T07:16:31.777Z,12.88
2019-04-29T07:18:59.241Z,11.30
2019-04-29T07:21:28.761Z,12.65
2019-04-29T07:23:58.297Z,13.03
2019-04-29T07:26:28.167Z,12.98
2019-04-29T07:28:57.695Z,13.60
2019-04-29T07:31:28.260Z,14.03
2019-04-29T07:33:59.144Z,13.88
2019-04-29T07:36:29.067Z,15.53
2019-04-29T07:38:58.723Z,14.63
2019-04-29T07:41:28.589Z,16.07
2019-04-29T07:43:58.511Z,17.05
2019-04-29T07:46:30.049Z,16.42
2019-04-29T07:49:01.655Z,15.10
2019-04-29T07:51:45.847Z,14.87
2019-04-29T07:54:17.691Z,17.20
2019-04-29T07:56:47.733Z,15.80
2019-04-29T07:59:17.810Z,16.48
2019-04-29T08:01:47.568Z,15.13
2019-04-29T08:04:17.106Z,16.65
2019-04-29T08:06:47.046Z,16.70
2019-04-29T08:09:17.247Z,18.30
2019-04-29T08:11:47.700Z,17.98
2019-04-29T08:14:19.359Z,18.40
2019-04-29T08:16:49.093Z,18.02
2019-04-29T08:19:19.095Z,19.55
2019-04-29T08:21:49.805Z,17.73
2019-04-29T08:24:20.692Z,19.75
2019-04-29T08:26:50.383Z,20.75
2019-04-29T08:29:20.327Z,20.08
2019-04-29T08:31:51.796Z,18.75
2019-04-29T08:34:23.126Z,19.50
2019-04-29T08:36:53.317Z,18.77
2019-04-29T08:39:25.067Z,18.20
2019-04-29T08:41:54.809Z,18.30
2019-04-29T08:44:45.700Z,19.15
2019-04-29T08:47:30.406Z,20.25
2019-04-29T08:49:57.788Z,19.73
2019-04-29T08:52:27.620Z,20.00
2019-04-29T08:54:57.395Z,19.87
2019-04-29T08:57:27.051Z,20.80
2019-04-29T08:59:56.989Z,20.30
2019-04-29T09:02:34.860Z,20.63
2019-04-29T09:04:58.446Z,19.98
2019-04-29T09:07:29.872Z,21.25
2019-04-29T09:10:01.747Z,21.20
2019-04-29T09:12:31.039Z,20.95
2019-04-29T09:15:00.801Z,22.25
2019-04-29T09:17:30.456Z,22.13
2019-04-29T09:20:00.419Z,21.65
2019-04-29T09:22:31.615Z,22.53
2019-04-29T09:25:12.079Z,21.17
2019-04-29T09:27:44.991Z,22.13
2019-04-29T09:30:16.614Z,21.40
2019-04-29T09:32:46.388Z,21.77
2019-04-29T09:35:16.324Z,22.07
2019-04-29T09:37:46.134Z,21.50
2019-04-29T09:40:17.762Z,21.33
2019-04-29T09:42:58.219Z,21.45
2019-04-29T09:45:29.610Z,22.13
2019-04-29T09:47:59.318Z,20.88
2019-04-29T09:50:28.998Z,20.20
2019-04-29T09:52:58.858Z,20.80
2019-04-29T09:55:28.998Z,21.25
2019-04-29T09:57:58.753Z,20.60
2019-04-29T10:01:05.563Z,21.48
2019-04-29T10:03:56.147Z,21.80
2019-04-29T10:06:36.235Z,20.15
2019-04-29T10:09:09.214Z,20.80
2019-04-29T10:11:39.462Z,21.00
2019-04-29T10:14:09.143Z,20.15
2019-04-29T10:16:40.663Z,20.32
2019-04-29T10:19:12.130Z,21.00
2019-04-29T10:21:42.047Z,20.77
2019-04-29T10:24:14.550Z,20.90
2019-04-29T10:26:43.537Z,19.20
2019-04-29T10:29:18.433Z,18.70
2019-04-29T10:31:46.626Z,16.85
2019-04-29T10:34:16.920Z,18.23
2019-04-29T10:36:46.767Z,17.25
2019-04-29T10:39:31.547Z,17.83
2019-04-29T10:42:03.187Z,18.48
2019-04-29T10:44:51.145Z,19.67
2019-04-29T10:47:34.622Z,18.17
2019-04-29T10:50:10.661Z,18.17
2019-04-29T10:52:40.856Z,19.60
2019-04-29T10:55:12.074Z,18.65
2019-04-29T10:57:44.902Z,19.02
2019-04-29T11:00:31.550Z,18.55
2019-04-29T11:03:01.699Z,19.32
2019-04-29T11:05:34.855Z,18.65
2019-04-29T11:08:06.846Z,18.32
2019-04-29T11:10:36.518Z,18.62
2019-04-29T11:13:06.783Z,19.15
2019-04-29T11:15:37.259Z,19.52
2019-04-29T11:18:07.745Z,18.25
2019-04-29T11:20:37.354Z,18.15
2019-04-29T11:23:24.039Z,18.30
2019-04-29T11:26:00.811Z,17.80
2019-04-29T11:28:32.995Z,17.05
2019-04-29T11:31:03.023Z,18.82
2019-04-29T11:33:41.764Z,16.50
2019-04-29T11:36:16.256Z,18.02
2019-04-29T11:38:46.067Z,18.70
2019-04-29T11:41:19.853Z,18.48
2019-04-29T11:43:51.119Z,17.20
2019-04-29T11:46:21.019Z,17.82
2019-04-29T11:48:52.057Z,16.60
2019-04-29T11:51:29.167Z,16.87
2019-04-29T11:53:58.915Z,16.57
2019-04-29T11:56:28.629Z,16.93
2019-04-29T11:59:16.762Z,16.60
2019-04-29T12:01:51.821Z,15.48
2019-04-29T12:04:21.911Z,16.32
2019-04-29T12:06:56.324Z,16.82
2019-04-29T12:09:30.302Z,16.40
2019-04-29T12:11:58.194Z,16.42
2019-04-29T12:14:37.931Z,14.98
2019-04-29T12:17:21.653Z,15.60
2019-04-29T12:19:53.210Z,15.70
2019-04-29T12:22:30.276Z,14.68
2019-04-29T12:24:54.714Z,13.50
2019-04-29T12:27:24.851Z,14.73
2019-04-29T12:29:59.172Z,14.50
2019-04-29T12:32:27.690Z,14.05
2019-04-29T12:34:59.290Z,15.25
2019-04-29T12:37:34.485Z,14.38
2019-04-29T12:40:24.066Z,14.95
2019-04-29T12:42:55.386Z,14.80
2019-04-29T12:45:41.831Z,14.80
2019-04-29T12:48:24.033Z,14.23
2019-04-29T12:50:43.131Z,13.83
2019-04-29T12:53:12.867Z,13.97
2019-04-29T12:55:49.008Z,13.15
2019-04-29T12:58:19.460Z,13.35
2019-04-29T13:00:55.771Z,12.98
2019-04-29T13:03:31.005Z,12.75
2019-04-29T13:06:02.874Z,12.88
2019-04-29T13:08:43.062Z,13.03
2019-04-29T13:11:14.697Z,12.05
2019-04-29T13:13:44.146Z,12.05
2019-04-29T13:16:21.990Z,11.20
2019-04-29T13:19:13.367Z,10.75
2019-04-29T13:21:41.323Z,10.65
2019-04-29T13:24:22.925Z,10.80
2019-04-29T13:26:43.194Z,11.33
2019-04-29T13:29:26.233Z,11.08
2019-04-29T13:31:44.665Z,11.48
2019-04-29T13:34:24.317Z,10.40
2019-04-29T13:37:06.137Z,11.10
2019-04-29T13:39:37.917Z,11.15
2019-04-29T13:41:57.716Z,10.55
2019-04-29T13:44:22.138Z,11.30
2019-04-29T13:46:56.538Z,12.30
2019-04-29T13:49:28.074Z,10.45
2019-04-29T13:52:02.732Z,9.93
2019-04-29T13:54:32.371Z,8.83
2019-04-29T13:57:09.373Z,10.55
2019-04-29T13:59:42.122Z,9.78
2019-04-29T14:02:22.124Z,9.75
2019-04-29T14:04:51.030Z,10.18
2019-04-29T14:07:22.135Z,11.20
2019-04-29T14:09:52.186Z,9.75
2019-04-29T14:12:47.822Z,8.78
2019-04-29T14:14:58.458Z,8.83
2019-04-29T14:17:31.719Z,8.85
2019-04-29T14:20:00.634Z,7.70
2019-04-29T14:22:30.646Z,8.25
2019-04-29T14:25:00.489Z,8.63
2019-04-29T14:27:30.410Z,8.40
2019-04-29T14:30:03.084Z,7.90
2019-04-29T14:32:36.098Z,7.85
2019-04-29T14:35:11.785Z,7.87
2019-04-29T14:37:38.708Z,8.30
2019-04-29T14:40:09.458Z,8.38
2019-04-29T14:45:14.767Z,7.22
2019-04-29T14:47:46.166Z,7.20
2019-04-29T14:50:20.416Z,7.37
2019-04-29T14:52:50.572Z,7.00
2019-04-29T14:55:20.066Z,7.17
2019-04-29T14:57:50.679Z,7.47
2019-04-29T15:00:28.531Z,7.15
2019-04-29T15:03:00.765Z,7.85
2019-04-29T15:05:32.953Z,7.15
2019-04-29T15:08:01.363Z,7.87
2019-04-29T15:10:32.969Z,7.08
2019-04-29T15:13:20.702Z,7.53
2019-04-29T15:16:04.564Z,7.25
2019-04-29T15:18:50.315Z,6.67
2019-04-29T15:21:31.520Z,6.87
2019-04-29T15:23:52.141Z,6.47
2019-04-29T15:26:22.135Z,6.37
2019-04-29T15:28:54.496Z,6.05
2019-04-29T15:31:25.131Z,5.60
2019-04-29T15:33:55.006Z,5.00
2019-04-29T15:36:24.586Z,5.03
2019-04-29T15:39:08.664Z,5.55
2019-04-29T15:41:31.282Z,5.35
2019-04-29T15:44:07.014Z,4.95
2019-04-29T15:46:34.417Z,5.17
2019-04-29T15:49:00.643Z,6.67
2019-04-29T15:51:30.158Z,4.92
2019-04-29T15:53:59.667Z,5.40
2019-04-29T15:56:33.850Z,5.25
2019-04-29T15:59:08.083Z,5.50
2019-04-29T16:01:32.491Z,5.60
2019-04-29T16:04:03.867Z,5.00
2019-04-29T16:06:41.436Z,5.72
2019-04-29T16:09:18.942Z,5.90
2019-04-29T16:11:50.503Z,5.12
2019-04-29T16:14:24.619Z,6.08
2019-04-29T16:16:54.384Z,6.12
2019-04-29T16:19:24.283Z,6.78
2019-04-29T16:21:54.202Z,7.00
2019-04-29T16:24:26.979Z,6.07
2019-04-29T16:27:15.583Z,6.60
2019-04-29T16:29:46.159Z,6.15
2019-04-29T16:32:24.211Z,6.10
2019-04-29T16:34:54.112Z,6.15
2019-04-29T16:37:25.000Z,6.60
2019-04-29T16:39:59.711Z,6.67
2019-04-29T16:42:34.320Z,6.55
2019-04-29T16:45:11.306Z,6.80
2019-04-29T16:47:37.605Z,7.15
2019-04-29T16:50:07.860Z,7.55
2019-04-29T16:52:44.147Z,6.35
2019-04-29T16:55:11.571Z,6.78
2019-04-29T16:57:41.614Z,7.12
2019-04-29T17:00:13.627Z,6.95
2019-04-29T17:02:44.514Z,7.97
2019-04-29T17:05:14.456Z,6.90
2019-04-29T17:07:44.331Z,7.80
2019-04-29T17:10:23.319Z,7.00
2019-04-29T17:12:53.531Z,7.83
2019-04-29T17:17:55.811Z,7.12
2019-04-29T17:20:25.737Z,7.47
2019-04-29T17:22:55.650Z,7.83
2019-04-29T17:25:26.115Z,6.78
2019-04-29T17:27:57.519Z,7.25
2019-04-29T17:30:28.865Z,7.22
2019-04-29T17:33:05.910Z,7.90
2019-04-29T17:35:16.118Z,7.58
2019-04-29T17:35:37.051Z,9.25
2019-04-29T17:40:37.282Z,8.48
2019-04-29T17:43:24.733Z,8.70
2019-04-29T17:45:56.016Z,7.95
2019-04-29T17:48:48.608Z,7.95
2019-04-29T17:54:02.493Z,6.95
2019-04-29T17:56:36.659Z,7.40
2019-04-29T17:59:29.630Z,7.40
2019-04-29T18:02:18.364Z,7.60
2019-04-29T18:04:49.655Z,6.80
2019-04-29T18:07:35.122Z,7.40
2019-04-29T18:10:29.258Z,6.95
2019-04-29T18:12:56.740Z,8.10
2019-04-29T18:15:40.409Z,6.97
2019-04-29T18:18:07.283Z,7.33
2019-04-29T18:20:36.712Z,7.50
2019-04-29T18:23:23.539Z,8.00
2019-04-29T18:25:54.861Z,7.75
2019-04-29T18:28:24.736Z,7.47
2019-04-29T18:30:57.875Z,6.62
2019-04-29T18:33:30.168Z,7.08
2019-04-29T18:36:04.313Z,7.08
2019-04-29T18:38:30.088Z,7.25
2019-04-29T18:40:59.949Z,6.70
2019-04-29T18:43:29.532Z,6.55
2019-04-29T18:45:59.434Z,7.62
2019-04-29T18:48:29.300Z,12.17
2019-04-29T18:50:59.223Z,9.58
2019-04-29T18:53:29.106Z,8.68
2019-04-29T18:55:59.035Z,9.73
2019-04-29T18:58:29.087Z,8.70
2019-04-29T19:00:58.859Z,9.63
2019-04-29T19:03:33.191Z,8.63
2019-04-29T19:06:10.206Z,8.40
2019-04-29T19:08:36.147Z,8.90
2019-04-29T19:11:06.993Z,9.90
2019-04-29T19:16:10.454Z,8.58
2019-04-29T19:18:37.732Z,8.10
2019-04-29T19:21:07.610Z,8.75
2019-04-29T19:23:37.510Z,9.20
2019-04-29T19:26:07.182Z,8.95
2019-04-29T19:28:37.112Z,9.55
2019-04-29T19:31:09.506Z,9.57
2019-04-29T19:33:39.431Z,10.75
2019-04-29T19:36:17.090Z,12.45
2019-04-29T19:38:43.424Z,14.95
2019-04-29T19:41:16.386Z,16.20
2019-04-29T19:43:48.369Z,17.05
2019-04-29T19:46:22.722Z,13.62
2019-04-29T19:48:47.378Z,15.78
2019-04-29T19:51:18.522Z,13.40
2019-04-29T19:53:49.728Z,14.90
2019-04-29T19:56:23.173Z,13.75
2019-04-29T19:58:51.490Z,13.93
2019-04-29T20:01:29.800Z,13.00
2019-04-29T20:03:57.034Z,12.90
2019-04-29T20:06:30.060Z,12.65
2019-04-29T20:09:01.157Z,13.25
2019-04-29T20:11:33.789Z,12.43
2019-04-29T20:14:05.156Z,12.25
2019-04-29T20:16:43.718Z,14.28
2019-04-29T20:19:22.429Z,13.05
2019-04-29T20:21:52.906Z,16.95
2019-04-29T20:24:23.584Z,15.55
2019-04-29T20:26:54.324Z,17.23
2019-04-29T20:29:27.264Z,15.98
2019-04-29T20:32:02.517Z,15.98
2019-04-29T20:34:32.744Z,15.23
2019-04-29T20:37:03.049Z,15.00
2019-04-29T20:39:33.067Z,16.82
2019-04-29T20:42:06.440Z,16.65
2019-04-29T20:44:36.767Z,16.80
2019-04-29T20:47:19.136Z,21.52
2019-04-29T20:49:39.585Z,19.55
2019-04-29T20:52:13.420Z,18.75
2019-04-29T20:54:42.587Z,21.23
2019-04-29T20:57:20.640Z,23.57
2019-04-29T20:59:48.853Z,28.25
2019-04-29T21:02:29.279Z,31.02
2019-04-29T21:04:47.739Z,27.20
2019-04-29T21:07:23.639Z,29.82
2019-04-29T21:09:49.462Z,28.30
2019-04-29T21:12:38.181Z,32.28
2019-04-29T21:15:18.511Z,32.10
2019-04-29T21:17:48.272Z,32.20
2019-04-29T21:20:18.112Z,30.72
2019-04-29T21:22:48.034Z,32.08
2019-04-29T21:25:17.955Z,30.92
2019-04-29T21:27:48.580Z,32.58
2019-04-29T21:30:18.622Z,31.82
2019-04-29T21:32:48.510Z,31.93
2019-04-29T21:35:26.977Z,32.83
2019-04-29T21:38:17.779Z,31.40
2019-04-29T21:40:57.128Z,31.05
2019-04-29T21:43:28.372Z,32.83
2019-04-29T21:45:59.420Z,31.80
2019-04-29T21:48:33.519Z,29.92
2019-04-29T21:51:00.921Z,29.63
2019-04-29T21:53:31.629Z,30.10
2019-04-29T21:56:06.263Z,29.72
2019-04-29T21:58:34.137Z,28.40
2019-04-29T22:01:05.465Z,29.20
2019-04-29T22:03:35.159Z,28.87
2019-04-29T22:06:05.153Z,28.57
2019-04-29T22:08:35.503Z,27.60
2019-04-29T22:11:07.028Z,26.45
2019-04-29T22:13:39.064Z,27.70
2019-04-29T22:16:11.383Z,25.72
2019-04-29T22:18:39.807Z,25.82
2019-04-29T22:21:10.227Z,25.55
2019-04-29T22:23:44.415Z,24.75
2019-04-29T22:26:15.778Z,24.92
2019-04-29T22:28:46.006Z,23.62
2019-04-29T22:31:18.224Z,24.72
2019-04-29T22:33:48.927Z,24.75
2019-04-29T22:36:18.810Z,23.95
2019-04-29T22:38:52.001Z,23.07
2019-04-29T22:44:21.893Z,23.30
2019-04-29T22:46:52.405Z,23.02
2019-04-29T22:49:27.283Z,21.35
2019-04-29T22:51:57.105Z,21.93
2019-04-29T22:54:25.491Z,21.05
2019-04-29T22:56:56.702Z,21.30
2019-04-29T22:59:27.475Z,21.17
2019-04-29T23:01:57.229Z,21.17
2019-04-29T23:04:27.132Z,20.70
2019-04-29T23:06:57.058Z,20.95
2019-04-29T23:09:26.951Z,21.73
2019-04-29T23:11:56.866Z,21.95
2019-04-29T23:14:26.771Z,21.70
2019-04-29T23:16:56.698Z,20.40
2019-04-29T23:19:26.608Z,21.43
2019-04-29T23:22:10.688Z,20.15
2019-04-29T23:24:51.462Z,21.33
2019-04-29T23:27:19.710Z,20.23
2019-04-29T23:29:49.678Z,21.00
2019-04-29T23:32:19.773Z,21.10
2019-04-29T23:34:49.426Z,21.53
2019-04-29T23:37:19.470Z,22.00
2019-04-29T23:39:50.491Z,20.23
2019-04-29T23:42:20.612Z,21.00
2019-04-29T23:44:50.326Z,20.75
2019-04-29T23:47:19.865Z,20.65
2019-04-29T23:49:49.744Z,20.40
2019-04-29T23:52:19.350Z,21.35
2019-04-29T23:54:49.163Z,21.20
2019-04-29T23:57:29.381Z,21.30
